sensor_id;sensor_type;location;lat;lon;timestamp;temperature;humidity
55870;DHT22;41790;50.940;4.560;2024-03-07T00:00:58;9.20;70.60
55870;DHT22;41790;50.940;4.560;2024-03-07T00:03:25;9.10;70.60
55870;DHT22;41790;50.940;4.560;2024-03-07T00:05:51;9.10;70.60
55870;DHT22;41790;50.940;4.560;2024-03-07T00:08:17;9.20;70.70
55870;DHT22;41790;50.940;4.560;2024-03-07T00:10:43;9.10;70.70
55870;DHT22;41790;50.940;4.560;2024-03-07T00:13:10;9.10;70.70
55870;DHT22;41790;50.940;4.560;2024-03-07T00:15:35;9.10;70.80
55870;DHT22;41790;50.940;4.560;2024-03-07T00:18:02;9.10;70.80
55870;DHT22;41790;50.940;4.560;2024-03-07T00:20:28;9.10;70.90
55870;DHT22;41790;50.940;4.560;2024-03-07T00:22:54;9.10;70.90
55870;DHT22;41790;50.940;4.560;2024-03-07T00:25:19;9.10;70.90
55870;DHT22;41790;50.940;4.560;2024-03-07T00:27:45;9.10;70.90
55870;DHT22;41790;50.940;4.560;2024-03-07T00:30:11;9.10;71.00
55870;DHT22;41790;50.940;4.560;2024-03-07T00:32:39;9.10;71.00
55870;DHT22;41790;50.940;4.560;2024-03-07T00:35:08;9.10;71.00
55870;DHT22;41790;50.940;4.560;2024-03-07T00:37:34;9.10;71.00
55870;DHT22;41790;50.940;4.560;2024-03-07T00:40:00;9.10;71.00
55870;DHT22;41790;50.940;4.560;2024-03-07T00:42:26;9.10;71.00
55870;DHT22;41790;50.940;4.560;2024-03-07T00:44:55;9.10;71.00
55870;DHT22;41790;50.940;4.560;2024-03-07T00:47:21;9.10;71.00
55870;DHT22;41790;50.940;4.560;2024-03-07T00:49:47;9.10;71.90
55870;DHT22;41790;50.940;4.560;2024-03-07T00:52:13;9.10;71.10
55870;DHT22;41790;50.940;4.560;2024-03-07T00:54:39;9.10;71.20
55870;DHT22;41790;50.940;4.560;2024-03-07T00:57:05;9.10;71.20
55870;DHT22;41790;50.940;4.560;2024-03-07T00:59:31;9.10;71.10
55870;DHT22;41790;50.940;4.560;2024-03-07T01:01:56;9.10;71.20
55870;DHT22;41790;50.940;4.560;2024-03-07T01:04:22;9.10;71.30
55870;DHT22;41790;50.940;4.560;2024-03-07T01:06:48;9.10;71.20
55870;DHT22;41790;50.940;4.560;2024-03-07T01:09:14;9.00;71.20
55870;DHT22;41790;50.940;4.560;2024-03-07T01:11:43;9.10;71.20
55870;DHT22;41790;50.940;4.560;2024-03-07T01:14:10;9.10;71.20
55870;DHT22;41790;50.940;4.560;2024-03-07T01:16:36;9.10;71.30
55870;DHT22;41790;50.940;4.560;2024-03-07T01:19:02;9.10;71.40
55870;DHT22;41790;50.940;4.560;2024-03-07T01:21:28;9.00;71.30
55870;DHT22;41790;50.940;4.560;2024-03-07T01:23:54;9.10;71.40
55870;DHT22;41790;50.940;4.560;2024-03-07T01:26:20;9.00;71.20
55870;DHT22;41790;50.940;4.560;2024-03-07T01:28:46;9.10;71.40
55870;DHT22;41790;50.940;4.560;2024-03-07T01:31:11;9.10;71.40
55870;DHT22;41790;50.940;4.560;2024-03-07T01:33:38;9.10;71.30
55870;DHT22;41790;50.940;4.560;2024-03-07T01:36:04;9.10;71.30
55870;DHT22;41790;50.940;4.560;2024-03-07T01:38:30;9.00;71.20
55870;DHT22;41790;50.940;4.560;2024-03-07T01:40:56;9.10;71.40
55870;DHT22;41790;50.940;4.560;2024-03-07T01:43:22;9.10;71.40
55870;DHT22;41790;50.940;4.560;2024-03-07T01:45:48;9.10;71.40
55870;DHT22;41790;50.940;4.560;2024-03-07T01:48:24;9.10;71.40
55870;DHT22;41790;50.940;4.560;2024-03-07T01:50:51;9.10;71.40
55870;DHT22;41790;50.940;4.560;2024-03-07T01:53:17;9.00;71.40
55870;DHT22;41790;50.940;4.560;2024-03-07T01:55:43;9.10;71.40
55870;DHT22;41790;50.940;4.560;2024-03-07T01:58:11;9.10;71.40
55870;DHT22;41790;50.940;4.560;2024-03-07T02:00:39;9.10;71.30
55870;DHT22;41790;50.940;4.560;2024-03-07T02:03:05;9.10;71.40
55870;DHT22;41790;50.940;4.560;2024-03-07T02:05:33;9.10;71.50
55870;DHT22;41790;50.940;4.560;2024-03-07T02:07:59;9.00;72.00
55870;DHT22;41790;50.940;4.560;2024-03-07T02:10:25;9.10;71.40
55870;DHT22;41790;50.940;4.560;2024-03-07T02:12:50;9.00;71.30
55870;DHT22;41790;50.940;4.560;2024-03-07T02:15:16;9.00;71.40
55870;DHT22;41790;50.940;4.560;2024-03-07T02:17:42;9.10;71.40
55870;DHT22;41790;50.940;4.560;2024-03-07T02:20:09;9.10;71.50
55870;DHT22;41790;50.940;4.560;2024-03-07T02:22:37;9.10;71.40
55870;DHT22;41790;50.940;4.560;2024-03-07T02:25:03;9.00;71.40
55870;DHT22;41790;50.940;4.560;2024-03-07T02:27:28;9.00;71.40
55870;DHT22;41790;50.940;4.560;2024-03-07T02:29:55;9.00;71.50
55870;DHT22;41790;50.940;4.560;2024-03-07T02:32:20;9.10;71.60
55870;DHT22;41790;50.940;4.560;2024-03-07T02:34:46;9.00;71.40
55870;DHT22;41790;50.940;4.560;2024-03-07T02:37:12;9.00;71.50
55870;DHT22;41790;50.940;4.560;2024-03-07T02:39:39;9.00;71.70
55870;DHT22;41790;50.940;4.560;2024-03-07T02:42:05;9.00;71.60
55870;DHT22;41790;50.940;4.560;2024-03-07T02:44:31;9.00;71.60
55870;DHT22;41790;50.940;4.560;2024-03-07T02:46:58;9.00;71.60
55870;DHT22;41790;50.940;4.560;2024-03-07T02:49:23;9.00;71.50
55870;DHT22;41790;50.940;4.560;2024-03-07T02:51:49;9.00;71.60
55870;DHT22;41790;50.940;4.560;2024-03-07T02:54:15;9.00;71.60
55870;DHT22;41790;50.940;4.560;2024-03-07T02:56:41;9.00;71.70
55870;DHT22;41790;50.940;4.560;2024-03-07T02:59:06;9.00;71.70
55870;DHT22;41790;50.940;4.560;2024-03-07T03:01:32;9.00;71.70
55870;DHT22;41790;50.940;4.560;2024-03-07T03:03:58;9.00;71.70
55870;DHT22;41790;50.940;4.560;2024-03-07T03:06:24;9.00;71.80
55870;DHT22;41790;50.940;4.560;2024-03-07T03:08:50;9.00;71.80
55870;DHT22;41790;50.940;4.560;2024-03-07T03:11:16;9.00;71.70
55870;DHT22;41790;50.940;4.560;2024-03-07T03:13:42;8.90;71.70
55870;DHT22;41790;50.940;4.560;2024-03-07T03:16:08;8.90;71.80
55870;DHT22;41790;50.940;4.560;2024-03-07T03:18:35;8.90;71.90
55870;DHT22;41790;50.940;4.560;2024-03-07T03:21:01;8.90;71.90
55870;DHT22;41790;50.940;4.560;2024-03-07T03:23:28;8.90;71.80
55870;DHT22;41790;50.940;4.560;2024-03-07T03:25:54;8.90;71.90
55870;DHT22;41790;50.940;4.560;2024-03-07T03:28:21;8.90;71.80
55870;DHT22;41790;50.940;4.560;2024-03-07T03:30:48;8.90;71.90
55870;DHT22;41790;50.940;4.560;2024-03-07T03:33:14;8.90;72.70
55870;DHT22;41790;50.940;4.560;2024-03-07T03:35:40;8.90;72.00
55870;DHT22;41790;50.940;4.560;2024-03-07T03:38:07;8.90;72.00
55870;DHT22;41790;50.940;4.560;2024-03-07T03:40:33;8.90;72.00
55870;DHT22;41790;50.940;4.560;2024-03-07T03:43:00;8.90;72.10
55870;DHT22;41790;50.940;4.560;2024-03-07T03:45:26;8.90;72.20
55870;DHT22;41790;50.940;4.560;2024-03-07T03:47:53;8.90;72.10
55870;DHT22;41790;50.940;4.560;2024-03-07T03:50:19;8.90;72.10
55870;DHT22;41790;50.940;4.560;2024-03-07T03:52:45;8.90;72.10
55870;DHT22;41790;50.940;4.560;2024-03-07T03:55:11;8.90;72.20
55870;DHT22;41790;50.940;4.560;2024-03-07T03:57:44;8.80;72.20
55870;DHT22;41790;50.940;4.560;2024-03-07T04:00:11;8.80;72.30
55870;DHT22;41790;50.940;4.560;2024-03-07T04:02:46;8.80;72.20
55870;DHT22;41790;50.940;4.560;2024-03-07T04:05:13;8.90;72.20
55870;DHT22;41790;50.940;4.560;2024-03-07T04:07:40;8.80;72.00
55870;DHT22;41790;50.940;4.560;2024-03-07T04:10:07;8.90;72.20
55870;DHT22;41790;50.940;4.560;2024-03-07T04:12:38;8.80;72.20
55870;DHT22;41790;50.940;4.560;2024-03-07T04:15:08;8.80;72.20
55870;DHT22;41790;50.940;4.560;2024-03-07T04:17:37;8.80;72.30
55870;DHT22;41790;50.940;4.560;2024-03-07T04:20:05;8.80;72.20
55870;DHT22;41790;50.940;4.560;2024-03-07T04:22:32;8.80;72.20
55870;DHT22;41790;50.940;4.560;2024-03-07T04:24:58;8.80;72.40
55870;DHT22;41790;50.940;4.560;2024-03-07T04:27:24;8.80;72.40
55870;DHT22;41790;50.940;4.560;2024-03-07T04:29:52;8.80;72.40
55870;DHT22;41790;50.940;4.560;2024-03-07T04:32:17;8.70;72.50
55870;DHT22;41790;50.940;4.560;2024-03-07T04:34:44;8.70;72.50
55870;DHT22;41790;50.940;4.560;2024-03-07T04:37:10;8.80;72.50
55870;DHT22;41790;50.940;4.560;2024-03-07T04:39:36;8.80;72.50
55870;DHT22;41790;50.940;4.560;2024-03-07T04:42:02;8.70;72.50
55870;DHT22;41790;50.940;4.560;2024-03-07T04:44:32;8.70;72.50
55870;DHT22;41790;50.940;4.560;2024-03-07T04:46:59;8.70;72.60
55870;DHT22;41790;50.940;4.560;2024-03-07T04:49:26;8.70;72.50
55870;DHT22;41790;50.940;4.560;2024-03-07T04:51:54;8.70;72.60
55870;DHT22;41790;50.940;4.560;2024-03-07T04:54:21;8.70;72.50
55870;DHT22;41790;50.940;4.560;2024-03-07T04:56:48;8.70;72.60
55870;DHT22;41790;50.940;4.560;2024-03-07T04:59:15;8.70;72.60
55870;DHT22;41790;50.940;4.560;2024-03-07T05:01:42;8.70;72.50
55870;DHT22;41790;50.940;4.560;2024-03-07T05:04:08;8.70;72.50
55870;DHT22;41790;50.940;4.560;2024-03-07T05:06:34;8.70;72.50
55870;DHT22;41790;50.940;4.560;2024-03-07T05:09:04;8.70;72.50
55870;DHT22;41790;50.940;4.560;2024-03-07T05:11:31;8.70;72.50
55870;DHT22;41790;50.940;4.560;2024-03-07T05:13:57;8.70;72.50
55870;DHT22;41790;50.940;4.560;2024-03-07T05:16:24;8.70;72.50
55870;DHT22;41790;50.940;4.560;2024-03-07T05:18:50;8.70;72.60
55870;DHT22;41790;50.940;4.560;2024-03-07T05:21:18;8.70;72.60
55870;DHT22;41790;50.940;4.560;2024-03-07T05:24:03;8.70;72.60
55870;DHT22;41790;50.940;4.560;2024-03-07T05:26:30;8.70;72.70
55870;DHT22;41790;50.940;4.560;2024-03-07T05:29:09;8.70;72.70
55870;DHT22;41790;50.940;4.560;2024-03-07T05:31:38;8.70;72.80
55870;DHT22;41790;50.940;4.560;2024-03-07T05:34:09;8.60;72.80
55870;DHT22;41790;50.940;4.560;2024-03-07T05:36:35;8.70;73.00
55870;DHT22;41790;50.940;4.560;2024-03-07T05:39:02;8.70;72.90
55870;DHT22;41790;50.940;4.560;2024-03-07T05:41:39;8.70;72.80
55870;DHT22;41790;50.940;4.560;2024-03-07T05:44:05;8.70;72.70
55870;DHT22;41790;50.940;4.560;2024-03-07T05:46:39;8.70;73.50
55870;DHT22;41790;50.940;4.560;2024-03-07T05:49:14;8.70;72.80
55870;DHT22;41790;50.940;4.560;2024-03-07T05:51:40;8.60;72.80
55870;DHT22;41790;50.940;4.560;2024-03-07T05:54:13;8.70;72.80
55870;DHT22;41790;50.940;4.560;2024-03-07T05:56:40;8.70;72.90
55870;DHT22;41790;50.940;4.560;2024-03-07T05:59:07;8.70;72.90
55870;DHT22;41790;50.940;4.560;2024-03-07T06:01:35;8.60;72.70
55870;DHT22;41790;50.940;4.560;2024-03-07T06:04:02;8.70;72.90
55870;DHT22;41790;50.940;4.560;2024-03-07T06:06:28;8.70;72.90
55870;DHT22;41790;50.940;4.560;2024-03-07T06:08:58;8.70;72.90
55870;DHT22;41790;50.940;4.560;2024-03-07T06:11:23;8.70;73.00
55870;DHT22;41790;50.940;4.560;2024-03-07T06:13:49;8.70;73.60
55870;DHT22;41790;50.940;4.560;2024-03-07T06:16:15;8.70;72.80
55870;DHT22;41790;50.940;4.560;2024-03-07T06:18:41;8.70;72.80
55870;DHT22;41790;50.940;4.560;2024-03-07T06:21:08;8.70;72.60
55870;DHT22;41790;50.940;4.560;2024-03-07T06:23:34;8.80;72.60
55870;DHT22;41790;50.940;4.560;2024-03-07T06:26:00;8.70;72.60
55870;DHT22;41790;50.940;4.560;2024-03-07T06:28:26;8.80;72.70
55870;DHT22;41790;50.940;4.560;2024-03-07T06:30:55;8.80;72.70
55870;DHT22;41790;50.940;4.560;2024-03-07T06:33:21;8.70;72.60
55870;DHT22;41790;50.940;4.560;2024-03-07T06:35:47;8.70;73.60
55870;DHT22;41790;50.940;4.560;2024-03-07T06:38:13;8.60;74.50
55870;DHT22;41790;50.940;4.560;2024-03-07T06:40:40;8.50;74.90
55870;DHT22;41790;50.940;4.560;2024-03-07T06:43:08;8.50;75.10
55870;DHT22;41790;50.940;4.560;2024-03-07T06:45:39;8.40;75.10
55870;DHT22;41790;50.940;4.560;2024-03-07T06:48:06;8.40;75.30
55870;DHT22;41790;50.940;4.560;2024-03-07T06:50:35;8.40;75.60
55870;DHT22;41790;50.940;4.560;2024-03-07T06:53:05;8.40;76.00
55870;DHT22;41790;50.940;4.560;2024-03-07T06:55:32;8.40;76.00
55870;DHT22;41790;50.940;4.560;2024-03-07T06:58:00;8.40;76.10
55870;DHT22;41790;50.940;4.560;2024-03-07T07:00:26;8.40;76.10
55870;DHT22;41790;50.940;4.560;2024-03-07T07:02:52;8.40;76.20
55870;DHT22;41790;50.940;4.560;2024-03-07T07:05:21;8.30;76.20
55870;DHT22;41790;50.940;4.560;2024-03-07T07:07:47;8.30;76.40
55870;DHT22;41790;50.940;4.560;2024-03-07T07:10:14;8.30;76.40
55870;DHT22;41790;50.940;4.560;2024-03-07T07:12:49;8.30;76.50
55870;DHT22;41790;50.940;4.560;2024-03-07T07:15:16;8.30;76.80
55870;DHT22;41790;50.940;4.560;2024-03-07T07:17:44;8.30;76.80
55870;DHT22;41790;50.940;4.560;2024-03-07T07:20:13;8.30;76.90
55870;DHT22;41790;50.940;4.560;2024-03-07T07:22:42;8.30;77.10
55870;DHT22;41790;50.940;4.560;2024-03-07T07:25:08;8.30;77.10
55870;DHT22;41790;50.940;4.560;2024-03-07T07:27:48;8.30;77.20
55870;DHT22;41790;50.940;4.560;2024-03-07T07:30:15;8.30;77.20
55870;DHT22;41790;50.940;4.560;2024-03-07T07:32:42;8.40;77.00
55870;DHT22;41790;50.940;4.560;2024-03-07T07:35:09;8.40;76.40
55870;DHT22;41790;50.940;4.560;2024-03-07T07:37:40;8.50;76.00
55870;DHT22;41790;50.940;4.560;2024-03-07T07:40:12;8.50;75.80
55870;DHT22;41790;50.940;4.560;2024-03-07T07:42:40;8.60;75.60
55870;DHT22;41790;50.940;4.560;2024-03-07T07:45:08;8.50;75.40
55870;DHT22;41790;50.940;4.560;2024-03-07T07:47:39;8.60;75.40
55870;DHT22;41790;50.940;4.560;2024-03-07T07:50:11;8.60;75.10
55870;DHT22;41790;50.940;4.560;2024-03-07T07:52:50;8.60;75.10
55870;DHT22;41790;50.940;4.560;2024-03-07T07:55:21;8.60;74.80
55870;DHT22;41790;50.940;4.560;2024-03-07T07:57:50;8.60;74.80
55870;DHT22;41790;50.940;4.560;2024-03-07T08:00:21;8.60;74.80
55870;DHT22;41790;50.940;4.560;2024-03-07T08:03:06;8.60;74.60
55870;DHT22;41790;50.940;4.560;2024-03-07T08:05:36;8.70;74.60
55870;DHT22;41790;50.940;4.560;2024-03-07T08:08:04;8.70;74.50
55870;DHT22;41790;50.940;4.560;2024-03-07T08:10:33;8.70;74.30
55870;DHT22;41790;50.940;4.560;2024-03-07T08:13:00;8.70;74.30
55870;DHT22;41790;50.940;4.560;2024-03-07T08:15:27;8.80;74.20
55870;DHT22;41790;50.940;4.560;2024-03-07T08:17:56;8.80;74.00
55870;DHT22;41790;50.940;4.560;2024-03-07T08:20:23;8.80;73.80
55870;DHT22;41790;50.940;4.560;2024-03-07T08:22:52;8.90;73.70
55870;DHT22;41790;50.940;4.560;2024-03-07T08:25:20;8.90;73.50
55870;DHT22;41790;50.940;4.560;2024-03-07T08:27:47;8.90;73.30
55870;DHT22;41790;50.940;4.560;2024-03-07T08:30:14;8.90;73.20
55870;DHT22;41790;50.940;4.560;2024-03-07T08:32:45;8.90;73.00
55870;DHT22;41790;50.940;4.560;2024-03-07T08:35:11;9.00;73.00
55870;DHT22;41790;50.940;4.560;2024-03-07T08:37:47;9.00;72.90
55870;DHT22;41790;50.940;4.560;2024-03-07T08:40:20;9.00;72.70
55870;DHT22;41790;50.940;4.560;2024-03-07T08:42:47;9.10;72.70
55870;DHT22;41790;50.940;4.560;2024-03-07T08:45:14;9.10;72.60
55870;DHT22;41790;50.940;4.560;2024-03-07T08:47:45;9.10;72.50
55870;DHT22;41790;50.940;4.560;2024-03-07T08:50:12;9.20;72.40
55870;DHT22;41790;50.940;4.560;2024-03-07T08:52:39;9.20;72.30
55870;DHT22;41790;50.940;4.560;2024-03-07T08:55:06;9.20;72.10
55870;DHT22;41790;50.940;4.560;2024-03-07T08:57:36;9.30;72.10
55870;DHT22;41790;50.940;4.560;2024-03-07T09:00:05;9.30;72.00
55870;DHT22;41790;50.940;4.560;2024-03-07T09:02:37;9.40;71.90
55870;DHT22;41790;50.940;4.560;2024-03-07T09:05:04;9.30;71.70
55870;DHT22;41790;50.940;4.560;2024-03-07T09:07:30;9.40;71.70
55870;DHT22;41790;50.940;4.560;2024-03-07T09:09:56;9.40;71.60
55870;DHT22;41790;50.940;4.560;2024-03-07T09:12:22;9.40;71.50
55870;DHT22;41790;50.940;4.560;2024-03-07T09:14:53;9.40;71.70
55870;DHT22;41790;50.940;4.560;2024-03-07T09:17:20;9.40;71.30
55870;DHT22;41790;50.940;4.560;2024-03-07T09:19:46;9.50;71.30
55870;DHT22;41790;50.940;4.560;2024-03-07T09:22:12;9.50;71.20
55870;DHT22;41790;50.940;4.560;2024-03-07T09:24:37;9.50;71.30
55870;DHT22;41790;50.940;4.560;2024-03-07T09:27:03;9.40;71.20
55870;DHT22;41790;50.940;4.560;2024-03-07T09:29:30;9.50;71.20
55870;DHT22;41790;50.940;4.560;2024-03-07T09:31:56;9.50;71.00
55870;DHT22;41790;50.940;4.560;2024-03-07T09:34:23;9.50;71.10
55870;DHT22;41790;50.940;4.560;2024-03-07T09:36:50;9.50;71.00
55870;DHT22;41790;50.940;4.560;2024-03-07T09:39:16;9.50;70.90
55870;DHT22;41790;50.940;4.560;2024-03-07T09:41:42;9.50;70.80
55870;DHT22;41790;50.940;4.560;2024-03-07T09:44:19;9.50;70.80
55870;DHT22;41790;50.940;4.560;2024-03-07T09:46:50;9.50;70.80
55870;DHT22;41790;50.940;4.560;2024-03-07T09:49:18;9.60;70.80
55870;DHT22;41790;50.940;4.560;2024-03-07T09:51:45;9.50;70.80
55870;DHT22;41790;50.940;4.560;2024-03-07T09:54:11;9.60;70.70
55870;DHT22;41790;50.940;4.560;2024-03-07T09:56:39;9.50;70.80
55870;DHT22;41790;50.940;4.560;2024-03-07T09:59:09;9.60;70.70
55870;DHT22;41790;50.940;4.560;2024-03-07T10:01:38;9.60;70.60
55870;DHT22;41790;50.940;4.560;2024-03-07T10:04:06;9.60;70.60
55870;DHT22;41790;50.940;4.560;2024-03-07T10:06:43;9.60;70.60
55870;DHT22;41790;50.940;4.560;2024-03-07T10:09:13;9.60;70.50
55870;DHT22;41790;50.940;4.560;2024-03-07T10:11:40;9.60;70.50
55870;DHT22;41790;50.940;4.560;2024-03-07T10:14:07;9.60;70.40
55870;DHT22;41790;50.940;4.560;2024-03-07T10:16:33;9.70;70.50
55870;DHT22;41790;50.940;4.560;2024-03-07T10:18:59;9.70;70.30
55870;DHT22;41790;50.940;4.560;2024-03-07T10:21:28;9.70;70.50
55870;DHT22;41790;50.940;4.560;2024-03-07T10:24:05;9.60;70.50
55870;DHT22;41790;50.940;4.560;2024-03-07T10:26:34;9.70;70.50
55870;DHT22;41790;50.940;4.560;2024-03-07T10:29:00;9.60;70.40
55870;DHT22;41790;50.940;4.560;2024-03-07T10:31:31;9.70;71.30
55870;DHT22;41790;50.940;4.560;2024-03-07T10:34:01;9.70;70.40
55870;DHT22;41790;50.940;4.560;2024-03-07T10:36:28;9.70;70.30
55870;DHT22;41790;50.940;4.560;2024-03-07T10:38:59;9.70;70.40
55870;DHT22;41790;50.940;4.560;2024-03-07T10:41:35;9.70;70.40
55870;DHT22;41790;50.940;4.560;2024-03-07T10:44:04;9.70;70.40
55870;DHT22;41790;50.940;4.560;2024-03-07T10:46:32;9.70;70.30
55870;DHT22;41790;50.940;4.560;2024-03-07T10:48:59;9.80;70.40
55870;DHT22;41790;50.940;4.560;2024-03-07T10:51:40;9.80;70.50
55870;DHT22;41790;50.940;4.560;2024-03-07T10:54:46;9.70;70.40
55870;DHT22;41790;50.940;4.560;2024-03-07T10:57:34;9.80;70.30
55870;DHT22;41790;50.940;4.560;2024-03-07T11:00:04;9.80;70.30
55870;DHT22;41790;50.940;4.560;2024-03-07T11:02:53;9.80;70.40
55870;DHT22;41790;50.940;4.560;2024-03-07T11:05:21;9.80;70.40
55870;DHT22;41790;50.940;4.560;2024-03-07T11:07:50;9.80;70.40
55870;DHT22;41790;50.940;4.560;2024-03-07T11:10:18;9.80;70.40
55870;DHT22;41790;50.940;4.560;2024-03-07T11:12:47;9.80;70.40
55870;DHT22;41790;50.940;4.560;2024-03-07T11:15:16;9.80;70.30
55870;DHT22;41790;50.940;4.560;2024-03-07T11:17:47;9.80;70.30
55870;DHT22;41790;50.940;4.560;2024-03-07T11:20:23;9.90;70.30
55870;DHT22;41790;50.940;4.560;2024-03-07T11:22:50;9.90;70.20
55870;DHT22;41790;50.940;4.560;2024-03-07T11:25:19;9.90;70.10
55870;DHT22;41790;50.940;4.560;2024-03-07T11:27:56;9.90;70.00
55870;DHT22;41790;50.940;4.560;2024-03-07T11:30:24;10.00;69.90
55870;DHT22;41790;50.940;4.560;2024-03-07T11:32:51;10.00;69.70
55870;DHT22;41790;50.940;4.560;2024-03-07T11:35:40;10.00;69.60
55870;DHT22;41790;50.940;4.560;2024-03-07T11:38:14;10.10;69.80
55870;DHT22;41790;50.940;4.560;2024-03-07T11:43:05;10.10;69.60
55870;DHT22;41790;50.940;4.560;2024-03-07T11:45:32;10.10;69.50
55870;DHT22;41790;50.940;4.560;2024-03-07T11:48:10;10.10;69.40
55870;DHT22;41790;50.940;4.560;2024-03-07T11:50:37;10.20;69.30
55870;DHT22;41790;50.940;4.560;2024-03-07T11:53:05;10.10;69.30
55870;DHT22;41790;50.940;4.560;2024-03-07T11:55:34;10.20;69.40
55870;DHT22;41790;50.940;4.560;2024-03-07T11:58:21;10.20;69.40
55870;DHT22;41790;50.940;4.560;2024-03-07T12:00:48;10.20;69.40
55870;DHT22;41790;50.940;4.560;2024-03-07T12:03:15;10.20;69.50
55870;DHT22;41790;50.940;4.560;2024-03-07T12:05:47;10.20;69.50
55870;DHT22;41790;50.940;4.560;2024-03-07T12:08:13;10.20;69.50
55870;DHT22;41790;50.940;4.560;2024-03-07T12:10:40;10.20;69.40
55870;DHT22;41790;50.940;4.560;2024-03-07T12:13:10;10.30;69.20
55870;DHT22;41790;50.940;4.560;2024-03-07T12:15:38;10.30;69.30
55870;DHT22;41790;50.940;4.560;2024-03-07T12:18:05;10.30;69.20
55870;DHT22;41790;50.940;4.560;2024-03-07T12:20:39;10.30;69.10
55870;DHT22;41790;50.940;4.560;2024-03-07T12:23:07;10.40;69.00
55870;DHT22;41790;50.940;4.560;2024-03-07T12:25:38;10.40;68.90
55870;DHT22;41790;50.940;4.560;2024-03-07T12:28:11;10.40;68.90
55870;DHT22;41790;50.940;4.560;2024-03-07T12:30:50;10.40;68.70
55870;DHT22;41790;50.940;4.560;2024-03-07T12:33:20;10.40;68.70
55870;DHT22;41790;50.940;4.560;2024-03-07T12:35:52;10.40;68.80
55870;DHT22;41790;50.940;4.560;2024-03-07T12:38:19;10.50;68.70
55870;DHT22;41790;50.940;4.560;2024-03-07T12:41:02;10.50;68.60
55870;DHT22;41790;50.940;4.560;2024-03-07T12:43:31;10.50;68.70
55870;DHT22;41790;50.940;4.560;2024-03-07T12:45:58;10.50;68.60
55870;DHT22;41790;50.940;4.560;2024-03-07T12:48:24;10.60;68.60
55870;DHT22;41790;50.940;4.560;2024-03-07T12:50:51;10.60;68.60
55870;DHT22;41790;50.940;4.560;2024-03-07T12:53:23;10.60;68.50
55870;DHT22;41790;50.940;4.560;2024-03-07T12:55:51;10.60;68.40
55870;DHT22;41790;50.940;4.560;2024-03-07T12:58:18;10.60;68.30
55870;DHT22;41790;50.940;4.560;2024-03-07T13:00:45;10.60;68.30
55870;DHT22;41790;50.940;4.560;2024-03-07T13:03:13;10.60;68.50
55870;DHT22;41790;50.940;4.560;2024-03-07T13:05:42;10.60;68.60
55870;DHT22;41790;50.940;4.560;2024-03-07T13:08:09;10.60;68.60
55870;DHT22;41790;50.940;4.560;2024-03-07T13:10:41;10.60;68.50
55870;DHT22;41790;50.940;4.560;2024-03-07T13:13:07;10.60;68.50
55870;DHT22;41790;50.940;4.560;2024-03-07T13:15:37;10.60;68.50
55870;DHT22;41790;50.940;4.560;2024-03-07T13:18:07;10.60;68.50
55870;DHT22;41790;50.940;4.560;2024-03-07T13:20:35;10.60;68.50
55870;DHT22;41790;50.940;4.560;2024-03-07T13:23:01;10.70;68.50
55870;DHT22;41790;50.940;4.560;2024-03-07T13:25:28;10.70;68.50
55870;DHT22;41790;50.940;4.560;2024-03-07T13:28:06;10.70;68.50
55870;DHT22;41790;50.940;4.560;2024-03-07T13:30:40;10.60;68.60
55870;DHT22;41790;50.940;4.560;2024-03-07T13:33:06;10.70;68.70
55870;DHT22;41790;50.940;4.560;2024-03-07T13:35:32;10.70;68.70
55870;DHT22;41790;50.940;4.560;2024-03-07T13:37:59;10.70;68.60
55870;DHT22;41790;50.940;4.560;2024-03-07T13:40:26;10.70;68.70
55870;DHT22;41790;50.940;4.560;2024-03-07T13:42:53;10.70;68.70
55870;DHT22;41790;50.940;4.560;2024-03-07T13:45:36;10.70;68.70
55870;DHT22;41790;50.940;4.560;2024-03-07T13:48:06;10.70;68.70
55870;DHT22;41790;50.940;4.560;2024-03-07T13:50:34;10.70;68.60
55870;DHT22;41790;50.940;4.560;2024-03-07T13:53:00;10.70;68.70
55870;DHT22;41790;50.940;4.560;2024-03-07T14:01:46;10.70;68.80
55870;DHT22;41790;50.940;4.560;2024-03-07T14:25:29;10.80;68.80
55870;DHT22;41790;50.940;4.560;2024-03-07T14:28:14;10.80;68.80
55870;DHT22;41790;50.940;4.560;2024-03-07T14:30:53;10.80;68.80
55870;DHT22;41790;50.940;4.560;2024-03-07T14:33:31;10.80;68.80
55870;DHT22;41790;50.940;4.560;2024-03-07T14:36:11;10.90;68.90
55870;DHT22;41790;50.940;4.560;2024-03-07T14:38:54;10.80;68.90
55870;DHT22;41790;50.940;4.560;2024-03-07T14:41:24;10.80;68.90
55870;DHT22;41790;50.940;4.560;2024-03-07T14:44:05;10.90;69.00
55870;DHT22;41790;50.940;4.560;2024-03-07T14:46:33;10.90;69.00
55870;DHT22;41790;50.940;4.560;2024-03-07T14:49:00;10.90;69.00
55870;DHT22;41790;50.940;4.560;2024-03-07T14:51:26;10.90;69.00
55870;DHT22;41790;50.940;4.560;2024-03-07T14:53:52;10.90;69.00
55870;DHT22;41790;50.940;4.560;2024-03-07T14:56:18;10.90;69.00
55870;DHT22;41790;50.940;4.560;2024-03-07T14:58:46;10.90;69.10
55870;DHT22;41790;50.940;4.560;2024-03-07T15:01:12;10.90;69.10
55870;DHT22;41790;50.940;4.560;2024-03-07T15:03:39;10.90;69.10
55870;DHT22;41790;50.940;4.560;2024-03-07T15:06:08;10.90;69.00
55870;DHT22;41790;50.940;4.560;2024-03-07T15:08:35;10.90;69.10
55870;DHT22;41790;50.940;4.560;2024-03-07T15:11:10;10.90;69.10
55870;DHT22;41790;50.940;4.560;2024-03-07T15:13:39;10.90;69.10
55870;DHT22;41790;50.940;4.560;2024-03-07T15:16:05;10.90;69.10
55870;DHT22;41790;50.940;4.560;2024-03-07T15:18:31;10.90;69.20
55870;DHT22;41790;50.940;4.560;2024-03-07T15:20:57;11.00;69.30
55870;DHT22;41790;50.940;4.560;2024-03-07T15:23:23;11.00;69.20
55870;DHT22;41790;50.940;4.560;2024-03-07T15:25:49;11.00;69.20
55870;DHT22;41790;50.940;4.560;2024-03-07T15:28:14;11.00;69.30
55870;DHT22;41790;50.940;4.560;2024-03-07T15:30:40;11.00;68.80
55870;DHT22;41790;50.940;4.560;2024-03-07T15:33:08;11.20;64.20
55870;DHT22;41790;50.940;4.560;2024-03-07T15:35:33;11.30;63.00
55870;DHT22;41790;50.940;4.560;2024-03-07T15:38:01;11.40;62.60
55870;DHT22;41790;50.940;4.560;2024-03-07T15:40:27;11.40;61.50
55870;DHT22;41790;50.940;4.560;2024-03-07T15:42:55;11.40;61.20
55870;DHT22;41790;50.940;4.560;2024-03-07T15:45:24;11.50;60.60
55870;DHT22;41790;50.940;4.560;2024-03-07T15:47:54;11.50;60.80
55870;DHT22;41790;50.940;4.560;2024-03-07T15:50:21;11.60;60.70
55870;DHT22;41790;50.940;4.560;2024-03-07T15:52:51;11.60;60.40
55870;DHT22;41790;50.940;4.560;2024-03-07T15:55:20;11.60;60.20
55870;DHT22;41790;50.940;4.560;2024-03-07T15:57:57;11.60;60.00
55870;DHT22;41790;50.940;4.560;2024-03-07T16:00:26;11.60;59.60
55870;DHT22;41790;50.940;4.560;2024-03-07T16:02:58;11.60;59.40
55870;DHT22;41790;50.940;4.560;2024-03-07T16:05:34;11.70;59.30
55870;DHT22;41790;50.940;4.560;2024-03-07T16:08:02;11.70;59.70
55870;DHT22;41790;50.940;4.560;2024-03-07T16:10:34;11.70;59.60
55870;DHT22;41790;50.940;4.560;2024-03-07T16:13:04;11.70;59.40
55870;DHT22;41790;50.940;4.560;2024-03-07T16:15:33;11.70;59.30
55870;DHT22;41790;50.940;4.560;2024-03-07T16:17:59;11.70;59.40
55870;DHT22;41790;50.940;4.560;2024-03-07T16:20:26;11.70;58.90